sensor_id;sensor_type;location;lat;lon;timestamp;temperature;humidity
44271;DHT22;29963;44.594;11.368;2023-03-01T00:01:26;5.90;99.90
44271;DHT22;29963;44.594;11.368;2023-03-01T00:03:52;6.00;99.90
44271;DHT22;29963;44.594;11.368;2023-03-01T00:06:19;6.00;99.90
44271;DHT22;29963;44.594;11.368;2023-03-01T00:08:44;6.00;99.90
44271;DHT22;29963;44.594;11.368;2023-03-01T00:11:29;5.90;99.90
44271;DHT22;29963;44.594;11.368;2023-03-01T00:13:58;5.90;99.90
44271;DHT22;29963;44.594;11.368;2023-03-01T00:16:26;5.80;99.90
44271;DHT22;29963;44.594;11.368;2023-03-01T00:18:53;5.80;99.90
44271;DHT22;29963;44.594;11.368;2023-03-01T00:21:21;5.70;99.90
44271;DHT22;29963;44.594;11.368;2023-03-01T00:23:51;5.70;99.90
44271;DHT22;29963;44.594;11.368;2023-03-01T00:26:18;5.70;99.90
44271;DHT22;29963;44.594;11.368;2023-03-01T00:28:44;5.70;99.90
44271;DHT22;29963;44.594;11.368;2023-03-01T00:31:13;5.70;99.90
44271;DHT22;29963;44.594;11.368;2023-03-01T00:33:39;5.70;99.90
44271;DHT22;29963;44.594;11.368;2023-03-01T00:36:05;5.70;99.90
44271;DHT22;29963;44.594;11.368;2023-03-01T00:38:38;5.80;99.90
44271;DHT22;29963;44.594;11.368;2023-03-01T00:41:06;5.70;99.90
44271;DHT22;29963;44.594;11.368;2023-03-01T00:43:32;5.70;99.90
44271;DHT22;29963;44.594;11.368;2023-03-01T00:46:05;5.70;99.90
44271;DHT22;29963;44.594;11.368;2023-03-01T00:48:32;5.60;99.90
44271;DHT22;29963;44.594;11.368;2023-03-01T00:51:13;5.60;99.90
44271;DHT22;29963;44.594;11.368;2023-03-01T00:53:40;5.60;99.90
44271;DHT22;29963;44.594;11.368;2023-03-01T00:56:07;5.60;99.90
44271;DHT22;29963;44.594;11.368;2023-03-01T00:58:34;5.60;99.90
44271;DHT22;29963;44.594;11.368;2023-03-01T01:01:00;5.50;99.90
44271;DHT22;29963;44.594;11.368;2023-03-01T01:03:26;5.50;99.90
44271;DHT22;29963;44.594;11.368;2023-03-01T01:05:52;5.50;99.90
44271;DHT22;29963;44.594;11.368;2023-03-01T01:08:19;5.50;99.90
44271;DHT22;29963;44.594;11.368;2023-03-01T01:10:46;5.50;99.90
44271;DHT22;29963;44.594;11.368;2023-03-01T01:13:12;5.40;99.90
44271;DHT22;29963;44.594;11.368;2023-03-01T01:15:40;5.40;99.90
44271;DHT22;29963;44.594;11.368;2023-03-01T01:18:06;5.40;99.90
44271;DHT22;29963;44.594;11.368;2023-03-01T01:20:32;5.30;99.90
44271;DHT22;29963;44.594;11.368;2023-03-01T01:23:00;5.30;99.90
44271;DHT22;29963;44.594;11.368;2023-03-01T01:25:25;5.30;99.90
44271;DHT22;29963;44.594;11.368;2023-03-01T01:27:51;5.30;99.90
44271;DHT22;29963;44.594;11.368;2023-03-01T01:30:17;5.20;99.90
44271;DHT22;29963;44.594;11.368;2023-03-01T01:32:42;5.20;99.90
44271;DHT22;29963;44.594;11.368;2023-03-01T01:35:08;5.20;99.90
44271;DHT22;29963;44.594;11.368;2023-03-01T01:37:34;5.10;99.90
44271;DHT22;29963;44.594;11.368;2023-03-01T01:40:01;5.10;99.90
44271;DHT22;29963;44.594;11.368;2023-03-01T01:42:29;5.10;99.90
44271;DHT22;29963;44.594;11.368;2023-03-01T01:47:52;5.10;99.90
44271;DHT22;29963;44.594;11.368;2023-03-01T01:50:22;5.20;99.90
44271;DHT22;29963;44.594;11.368;2023-03-01T01:52:50;5.20;99.90
44271;DHT22;29963;44.594;11.368;2023-03-01T01:55:22;5.20;99.90
44271;DHT22;29963;44.594;11.368;2023-03-01T01:57:52;5.20;99.90
44271;DHT22;29963;44.594;11.368;2023-03-01T02:00:22;5.20;99.90
44271;DHT22;29963;44.594;11.368;2023-03-01T02:02:52;5.20;99.90
44271;DHT22;29963;44.594;11.368;2023-03-01T02:05:40;5.20;99.90
44271;DHT22;29963;44.594;11.368;2023-03-01T02:08:09;5.20;99.90
44271;DHT22;29963;44.594;11.368;2023-03-01T02:10:37;5.20;99.90
44271;DHT22;29963;44.594;11.368;2023-03-01T02:13:03;5.20;99.90
44271;DHT22;29963;44.594;11.368;2023-03-01T02:15:37;5.20;99.90
44271;DHT22;29963;44.594;11.368;2023-03-01T02:18:04;5.20;99.90
44271;DHT22;29963;44.594;11.368;2023-03-01T02:20:51;5.20;99.90
44271;DHT22;29963;44.594;11.368;2023-03-01T02:23:22;5.20;99.90
44271;DHT22;29963;44.594;11.368;2023-03-01T02:26:11;5.20;99.90
44271;DHT22;29963;44.594;11.368;2023-03-01T02:28:40;5.20;99.90
44271;DHT22;29963;44.594;11.368;2023-03-01T02:31:09;5.20;99.90
44271;DHT22;29963;44.594;11.368;2023-03-01T02:33:55;5.20;99.90
44271;DHT22;29963;44.594;11.368;2023-03-01T02:36:31;5.20;99.90
44271;DHT22;29963;44.594;11.368;2023-03-01T02:38:59;5.20;99.90
44271;DHT22;29963;44.594;11.368;2023-03-01T02:41:28;5.20;99.90
44271;DHT22;29963;44.594;11.368;2023-03-01T02:43:55;5.10;99.90
44271;DHT22;29963;44.594;11.368;2023-03-01T02:46:23;5.10;99.90
44271;DHT22;29963;44.594;11.368;2023-03-01T02:48:55;5.10;99.90
44271;DHT22;29963;44.594;11.368;2023-03-01T02:56:33;5.00;99.90
44271;DHT22;29963;44.594;11.368;2023-03-01T02:59:01;5.00;99.90
44271;DHT22;29963;44.594;11.368;2023-03-01T03:01:28;5.00;99.90
44271;DHT22;29963;44.594;11.368;2023-03-01T03:04:11;5.00;99.90
44271;DHT22;29963;44.594;11.368;2023-03-01T03:06:43;5.00;99.90
44271;DHT22;29963;44.594;11.368;2023-03-01T03:09:09;4.90;99.90
44271;DHT22;29963;44.594;11.368;2023-03-01T03:11:35;5.00;99.90
44271;DHT22;29963;44.594;11.368;2023-03-01T03:14:02;5.00;99.90
44271;DHT22;29963;44.594;11.368;2023-03-01T03:16:28;5.00;99.90
44271;DHT22;29963;44.594;11.368;2023-03-01T03:18:55;5.00;99.90
44271;DHT22;29963;44.594;11.368;2023-03-01T03:21:31;5.00;99.90
44271;DHT22;29963;44.594;11.368;2023-03-01T03:23:57;4.90;99.90
44271;DHT22;29963;44.594;11.368;2023-03-01T03:26:23;4.90;99.90
44271;DHT22;29963;44.594;11.368;2023-03-01T03:28:51;4.90;99.90
44271;DHT22;29963;44.594;11.368;2023-03-01T03:31:17;4.90;99.90
44271;DHT22;29963;44.594;11.368;2023-03-01T03:33:43;4.90;99.90
44271;DHT22;29963;44.594;11.368;2023-03-01T03:36:09;4.80;99.90
44271;DHT22;29963;44.594;11.368;2023-03-01T03:38:39;4.80;99.90
44271;DHT22;29963;44.594;11.368;2023-03-01T03:41:07;4.80;99.90
44271;DHT22;29963;44.594;11.368;2023-03-01T03:43:36;4.80;99.90
44271;DHT22;29963;44.594;11.368;2023-03-01T03:46:02;4.80;99.90
44271;DHT22;29963;44.594;11.368;2023-03-01T03:48:33;4.70;99.90
44271;DHT22;29963;44.594;11.368;2023-03-01T03:50:58;4.70;99.90
44271;DHT22;29963;44.594;11.368;2023-03-01T03:53:26;4.70;99.90
44271;DHT22;29963;44.594;11.368;2023-03-01T03:55:52;4.70;99.90
44271;DHT22;29963;44.594;11.368;2023-03-01T03:58:20;4.70;99.90
44271;DHT22;29963;44.594;11.368;2023-03-01T04:00:47;4.70;99.90
44271;DHT22;29963;44.594;11.368;2023-03-01T04:03:15;4.80;99.90
44271;DHT22;29963;44.594;11.368;2023-03-01T04:05:41;4.80;99.90
44271;DHT22;29963;44.594;11.368;2023-03-01T04:08:10;4.80;99.90
44271;DHT22;29963;44.594;11.368;2023-03-01T04:10:45;4.80;99.90
44271;DHT22;29963;44.594;11.368;2023-03-01T04:13:13;4.80;99.90
44271;DHT22;29963;44.594;11.368;2023-03-01T04:15:39;4.80;99.90
44271;DHT22;29963;44.594;11.368;2023-03-01T04:18:10;4.80;99.90
44271;DHT22;29963;44.594;11.368;2023-03-01T04:20:37;4.90;99.90
44271;DHT22;29963;44.594;11.368;2023-03-01T04:23:06;4.90;99.90
44271;DHT22;29963;44.594;11.368;2023-03-01T04:25:56;4.90;99.90
44271;DHT22;29963;44.594;11.368;2023-03-01T04:28:28;4.80;99.90
44271;DHT22;29963;44.594;11.368;2023-03-01T04:30:55;4.80;99.90
44271;DHT22;29963;44.594;11.368;2023-03-01T04:33:25;4.80;99.90
44271;DHT22;29963;44.594;11.368;2023-03-01T04:35:51;4.90;99.90
44271;DHT22;29963;44.594;11.368;2023-03-01T04:38:17;4.90;99.90
44271;DHT22;29963;44.594;11.368;2023-03-01T04:40:43;4.90;99.90
44271;DHT22;29963;44.594;11.368;2023-03-01T04:43:10;4.90;99.90
44271;DHT22;29963;44.594;11.368;2023-03-01T04:45:36;4.90;99.90
44271;DHT22;29963;44.594;11.368;2023-03-01T04:48:03;5.00;99.90
44271;DHT22;29963;44.594;11.368;2023-03-01T04:50:29;4.90;99.90
44271;DHT22;29963;44.594;11.368;2023-03-01T04:52:57;4.90;99.90
44271;DHT22;29963;44.594;11.368;2023-03-01T04:55:26;4.80;99.90
44271;DHT22;29963;44.594;11.368;2023-03-01T04:57:53;4.80;99.90
44271;DHT22;29963;44.594;11.368;2023-03-01T05:00:19;4.70;99.90
44271;DHT22;29963;44.594;11.368;2023-03-01T05:02:56;4.70;99.90
44271;DHT22;29963;44.594;11.368;2023-03-01T05:05:30;4.60;99.90
44271;DHT22;29963;44.594;11.368;2023-03-01T05:07:58;4.60;99.90
44271;DHT22;29963;44.594;11.368;2023-03-01T05:10:25;4.60;99.90
44271;DHT22;29963;44.594;11.368;2023-03-01T05:12:51;4.50;99.90
44271;DHT22;29963;44.594;11.368;2023-03-01T05:15:18;4.50;99.90
44271;DHT22;29963;44.594;11.368;2023-03-01T05:17:44;4.50;99.90
44271;DHT22;29963;44.594;11.368;2023-03-01T05:20:11;4.50;99.90
44271;DHT22;29963;44.594;11.368;2023-03-01T05:22:37;4.60;99.90
44271;DHT22;29963;44.594;11.368;2023-03-01T05:25:03;4.60;99.90
44271;DHT22;29963;44.594;11.368;2023-03-01T05:27:29;4.60;99.90
44271;DHT22;29963;44.594;11.368;2023-03-01T05:29:55;4.50;99.90
44271;DHT22;29963;44.594;11.368;2023-03-01T05:32:21;4.50;99.90
44271;DHT22;29963;44.594;11.368;2023-03-01T05:34:47;4.50;99.90
44271;DHT22;29963;44.594;11.368;2023-03-01T05:37:13;4.50;99.90
44271;DHT22;29963;44.594;11.368;2023-03-01T05:39:39;4.50;99.90
44271;DHT22;29963;44.594;11.368;2023-03-01T05:42:05;4.50;99.90
44271;DHT22;29963;44.594;11.368;2023-03-01T05:44:31;4.50;99.90
44271;DHT22;29963;44.594;11.368;2023-03-01T05:46:57;4.40;99.90
44271;DHT22;29963;44.594;11.368;2023-03-01T05:49:23;4.40;99.90
44271;DHT22;29963;44.594;11.368;2023-03-01T05:51:51;4.30;99.90
44271;DHT22;29963;44.594;11.368;2023-03-01T05:54:17;4.40;99.90
44271;DHT22;29963;44.594;11.368;2023-03-01T05:56:44;4.30;99.90
44271;DHT22;29963;44.594;11.368;2023-03-01T05:59:10;4.30;99.90
44271;DHT22;29963;44.594;11.368;2023-03-01T06:01:36;4.30;99.90
44271;DHT22;29963;44.594;11.368;2023-03-01T06:04:02;4.20;99.90
44271;DHT22;29963;44.594;11.368;2023-03-01T06:06:28;4.20;99.90
44271;DHT22;29963;44.594;11.368;2023-03-01T06:08:54;4.20;99.90
44271;DHT22;29963;44.594;11.368;2023-03-01T06:11:21;4.30;99.90
44271;DHT22;29963;44.594;11.368;2023-03-01T06:13:47;4.20;99.90
44271;DHT22;29963;44.594;11.368;2023-03-01T06:16:13;4.30;99.90
44271;DHT22;29963;44.594;11.368;2023-03-01T06:18:40;4.30;99.90
44271;DHT22;29963;44.594;11.368;2023-03-01T06:21:07;4.30;99.90
44271;DHT22;29963;44.594;11.368;2023-03-01T06:23:35;4.30;99.90
44271;DHT22;29963;44.594;11.368;2023-03-01T06:26:06;4.30;99.90
44271;DHT22;29963;44.594;11.368;2023-03-01T06:28:32;4.30;99.90
44271;DHT22;29963;44.594;11.368;2023-03-01T06:30:57;4.20;99.90
44271;DHT22;29963;44.594;11.368;2023-03-01T06:33:23;4.20;99.90
44271;DHT22;29963;44.594;11.368;2023-03-01T06:35:50;4.20;99.90
44271;DHT22;29963;44.594;11.368;2023-03-01T06:38:16;4.20;99.90
44271;DHT22;29963;44.594;11.368;2023-03-01T06:40:44;4.30;99.90
44271;DHT22;29963;44.594;11.368;2023-03-01T06:43:10;4.30;99.90
44271;DHT22;29963;44.594;11.368;2023-03-01T06:45:36;4.30;99.90
44271;DHT22;29963;44.594;11.368;2023-03-01T06:48:06;4.30;99.90
44271;DHT22;29963;44.594;11.368;2023-03-01T06:50:32;4.30;99.90
44271;DHT22;29963;44.594;11.368;2023-03-01T06:52:58;4.30;99.90
44271;DHT22;29963;44.594;11.368;2023-03-01T06:55:23;4.30;99.90
44271;DHT22;29963;44.594;11.368;2023-03-01T06:57:56;4.30;99.90
44271;DHT22;29963;44.594;11.368;2023-03-01T07:00:25;4.40;99.90
44271;DHT22;29963;44.594;11.368;2023-03-01T07:02:51;4.40;99.90
44271;DHT22;29963;44.594;11.368;2023-03-01T07:05:17;4.40;99.90
44271;DHT22;29963;44.594;11.368;2023-03-01T07:07:43;4.40;99.90
44271;DHT22;29963;44.594;11.368;2023-03-01T07:10:09;4.40;99.90
44271;DHT22;29963;44.594;11.368;2023-03-01T07:12:35;4.40;99.90
44271;DHT22;29963;44.594;11.368;2023-03-01T07:15:00;4.40;99.90
44271;DHT22;29963;44.594;11.368;2023-03-01T07:17:26;4.40;99.90
44271;DHT22;29963;44.594;11.368;2023-03-01T07:19:52;4.40;99.90
44271;DHT22;29963;44.594;11.368;2023-03-01T07:22:17;4.40;99.90
44271;DHT22;29963;44.594;11.368;2023-03-01T07:24:43;4.50;99.90
44271;DHT22;29963;44.594;11.368;2023-03-01T07:27:09;4.50;99.90
44271;DHT22;29963;44.594;11.368;2023-03-01T07:29:35;4.50;99.90
44271;DHT22;29963;44.594;11.368;2023-03-01T07:32:04;4.50;99.90
44271;DHT22;29963;44.594;11.368;2023-03-01T07:34:30;4.50;99.90
44271;DHT22;29963;44.594;11.368;2023-03-01T07:36:56;4.50;99.90
44271;DHT22;29963;44.594;11.368;2023-03-01T07:39:24;4.50;99.90
44271;DHT22;29963;44.594;11.368;2023-03-01T07:41:51;4.50;99.90
44271;DHT22;29963;44.594;11.368;2023-03-01T07:44:16;4.50;99.90
44271;DHT22;29963;44.594;11.368;2023-03-01T07:46:46;4.50;99.90
44271;DHT22;29963;44.594;11.368;2023-03-01T07:49:11;4.60;99.90
44271;DHT22;29963;44.594;11.368;2023-03-01T07:51:37;4.60;99.90
44271;DHT22;29963;44.594;11.368;2023-03-01T07:54:02;4.70;99.90
44271;DHT22;29963;44.594;11.368;2023-03-01T07:56:28;4.70;99.90
44271;DHT22;29963;44.594;11.368;2023-03-01T07:58:54;4.80;99.90
44271;DHT22;29963;44.594;11.368;2023-03-01T08:01:20;4.80;99.90
44271;DHT22;29963;44.594;11.368;2023-03-01T08:03:46;4.80;99.90
44271;DHT22;29963;44.594;11.368;2023-03-01T08:06:14;4.80;99.90
44271;DHT22;29963;44.594;11.368;2023-03-01T08:08:40;4.90;99.90
44271;DHT22;29963;44.594;11.368;2023-03-01T08:11:07;4.90;99.90
44271;DHT22;29963;44.594;11.368;2023-03-01T08:13:33;4.80;99.90
44271;DHT22;29963;44.594;11.368;2023-03-01T08:16:21;4.80;99.90
44271;DHT22;29963;44.594;11.368;2023-03-01T08:18:46;4.80;99.90
44271;DHT22;29963;44.594;11.368;2023-03-01T08:21:14;4.70;99.90
44271;DHT22;29963;44.594;11.368;2023-03-01T08:23:44;4.80;99.90
44271;DHT22;29963;44.594;11.368;2023-03-01T08:28:37;4.70;99.90
44271;DHT22;29963;44.594;11.368;2023-03-01T08:31:03;4.70;99.90
44271;DHT22;29963;44.594;11.368;2023-03-01T08:33:28;4.60;99.90
44271;DHT22;29963;44.594;11.368;2023-03-01T08:36:05;4.60;99.90
44271;DHT22;29963;44.594;11.368;2023-03-01T08:38:33;4.60;99.90
44271;DHT22;29963;44.594;11.368;2023-03-01T08:41:02;4.60;99.90
44271;DHT22;29963;44.594;11.368;2023-03-01T08:43:29;4.50;99.90
44271;DHT22;29963;44.594;11.368;2023-03-01T08:45:57;4.50;99.90
44271;DHT22;29963;44.594;11.368;2023-03-01T08:48:23;4.50;99.90
44271;DHT22;29963;44.594;11.368;2023-03-01T08:50:48;4.50;99.90
44271;DHT22;29963;44.594;11.368;2023-03-01T08:53:14;4.50;99.90
44271;DHT22;29963;44.594;11.368;2023-03-01T08:55:39;4.50;99.90
44271;DHT22;29963;44.594;11.368;2023-03-01T08:58:05;4.50;99.90
44271;DHT22;29963;44.594;11.368;2023-03-01T09:00:31;4.50;99.90
44271;DHT22;29963;44.594;11.368;2023-03-01T09:03:00;4.50;99.90
44271;DHT22;29963;44.594;11.368;2023-03-01T09:05:26;4.50;99.90
44271;DHT22;29963;44.594;11.368;2023-03-01T09:07:51;4.50;99.90
44271;DHT22;29963;44.594;11.368;2023-03-01T09:10:17;4.60;99.90
44271;DHT22;29963;44.594;11.368;2023-03-01T09:12:46;4.50;99.90
44271;DHT22;29963;44.594;11.368;2023-03-01T09:15:12;4.50;99.90
44271;DHT22;29963;44.594;11.368;2023-03-01T09:17:37;4.50;99.90
44271;DHT22;29963;44.594;11.368;2023-03-01T09:20:03;4.50;99.90
44271;DHT22;29963;44.594;11.368;2023-03-01T09:22:32;4.50;99.90
44271;DHT22;29963;44.594;11.368;2023-03-01T09:24:58;4.40;99.90
44271;DHT22;29963;44.594;11.368;2023-03-01T09:27:24;4.50;99.90
44271;DHT22;29963;44.594;11.368;2023-03-01T09:29:50;4.40;99.90
44271;DHT22;29963;44.594;11.368;2023-03-01T09:32:16;4.40;99.90
44271;DHT22;29963;44.594;11.368;2023-03-01T09:34:41;4.50;99.90
44271;DHT22;29963;44.594;11.368;2023-03-01T09:37:26;4.40;99.90
44271;DHT22;29963;44.594;11.368;2023-03-01T09:39:52;4.50;99.90
44271;DHT22;29963;44.594;11.368;2023-03-01T09:42:18;4.50;99.90
44271;DHT22;29963;44.594;11.368;2023-03-01T09:45:11;4.50;99.90
44271;DHT22;29963;44.594;11.368;2023-03-01T09:47:36;4.60;99.90
44271;DHT22;29963;44.594;11.368;2023-03-01T09:50:11;4.70;99.90
44271;DHT22;29963;44.594;11.368;2023-03-01T09:52:53;4.70;99.90
44271;DHT22;29963;44.594;11.368;2023-03-01T09:55:31;4.70;99.90
44271;DHT22;29963;44.594;11.368;2023-03-01T10:03:48;4.80;99.90
44271;DHT22;29963;44.594;11.368;2023-03-01T10:06:23;4.80;99.90
44271;DHT22;29963;44.594;11.368;2023-03-01T10:08:59;4.70;99.90
44271;DHT22;29963;44.594;11.368;2023-03-01T10:11:36;4.70;99.90
44271;DHT22;29963;44.594;11.368;2023-03-01T10:14:05;4.60;99.90
44271;DHT22;29963;44.594;11.368;2023-03-01T10:19:40;4.50;99.90
44271;DHT22;29963;44.594;11.368;2023-03-01T10:22:19;4.50;99.90
44271;DHT22;29963;44.594;11.368;2023-03-01T10:24:47;4.50;99.90
44271;DHT22;29963;44.594;11.368;2023-03-01T10:27:22;4.50;99.90
44271;DHT22;29963;44.594;11.368;2023-03-01T10:30:14;4.40;99.90
44271;DHT22;29963;44.594;11.368;2023-03-01T10:32:43;4.40;99.90
44271;DHT22;29963;44.594;11.368;2023-03-01T10:35:21;4.40;99.90
44271;DHT22;29963;44.594;11.368;2023-03-01T10:40:22;4.40;99.90
44271;DHT22;29963;44.594;11.368;2023-03-01T10:42:49;4.40;99.90
44271;DHT22;29963;44.594;11.368;2023-03-01T10:45:35;4.40;99.90
44271;DHT22;29963;44.594;11.368;2023-03-01T10:50:31;4.50;99.90
44271;DHT22;29963;44.594;11.368;2023-03-01T10:53:04;4.50;99.90
44271;DHT22;29963;44.594;11.368;2023-03-01T10:55:37;4.50;99.90
44271;DHT22;29963;44.594;11.368;2023-03-01T11:00:53;4.60;99.90
44271;DHT22;29963;44.594;11.368;2023-03-01T11:03:25;4.60;99.90
44271;DHT22;29963;44.594;11.368;2023-03-01T11:05:58;4.60;99.90
44271;DHT22;29963;44.594;11.368;2023-03-01T11:08:45;4.60;99.90
44271;DHT22;29963;44.594;11.368;2023-03-01T11:11:21;4.60;99.90
44271;DHT22;29963;44.594;11.368;2023-03-01T11:14:12;4.70;99.90
44271;DHT22;29963;44.594;11.368;2023-03-01T11:16:42;4.70;99.90
44271;DHT22;29963;44.594;11.368;2023-03-01T11:22:19;4.70;99.90
44271;DHT22;29963;44.594;11.368;2023-03-01T11:24:41;4.70;99.90
44271;DHT22;29963;44.594;11.368;2023-03-01T11:30:00;4.70;99.90
44271;DHT22;29963;44.594;11.368;2023-03-01T11:32:32;4.60;99.90
44271;DHT22;29963;44.594;11.368;2023-03-01T11:35:17;4.60;99.90
44271;DHT22;29963;44.594;11.368;2023-03-01T11:38:04;4.60;99.90
44271;DHT22;29963;44.594;11.368;2023-03-01T11:52:26;4.50;99.90
44271;DHT22;29963;44.594;11.368;2023-03-01T12:00:35;4.30;99.90
44271;DHT22;29963;44.594;11.368;2023-03-01T12:09:09;4.20;99.90
44271;DHT22;29963;44.594;11.368;2023-03-01T12:14:18;4.20;99.90
44271;DHT22;29963;44.594;11.368;2023-03-01T12:20:02;4.00;99.90
44271;DHT22;29963;44.594;11.368;2023-03-01T12:30:56;3.80;99.90
44271;DHT22;29963;44.594;11.368;2023-03-01T12:38:57;3.70;99.90
44271;DHT22;29963;44.594;11.368;2023-03-01T12:41:37;3.60;99.90
44271;DHT22;29963;44.594;11.368;2023-03-01T12:48:06;3.50;99.90
44271;DHT22;29963;44.594;11.368;2023-03-01T12:50:33;3.40;99.90
44271;DHT22;29963;44.594;11.368;2023-03-01T12:53:02;3.30;99.90
44271;DHT22;29963;44.594;11.368;2023-03-01T12:55:37;3.10;99.90
44271;DHT22;29963;44.594;11.368;2023-03-01T13:00:45;2.90;99.90
44271;DHT22;29963;44.594;11.368;2023-03-01T13:06:08;2.80;99.90
44271;DHT22;29963;44.594;11.368;2023-03-01T13:09:03;2.80;99.90
44271;DHT22;29963;44.594;11.368;2023-03-01T13:11:32;2.70;99.90
44271;DHT22;29963;44.594;11.368;2023-03-01T13:16:45;2.60;99.90
44271;DHT22;29963;44.594;11.368;2023-03-01T13:19:22;2.50;99.90
44271;DHT22;29963;44.594;11.368;2023-03-01T13:21:49;2.60;99.90
44271;DHT22;29963;44.594;11.368;2023-03-01T13:24:26;2.50;99.90
44271;DHT22;29963;44.594;11.368;2023-03-01T13:29:50;2.50;99.90
44271;DHT22;29963;44.594;11.368;2023-03-01T13:32:35;2.40;99.90
44271;DHT22;29963;44.594;11.368;2023-03-01T13:37:43;2.40;99.90
44271;DHT22;29963;44.594;11.368;2023-03-01T13:42:43;2.40;99.90
44271;DHT22;29963;44.594;11.368;2023-03-01T13:47:46;2.40;99.90
44271;DHT22;29963;44.594;11.368;2023-03-01T13:50:21;2.40;99.90
44271;DHT22;29963;44.594;11.368;2023-03-01T13:52:56;2.40;99.90
44271;DHT22;29963;44.594;11.368;2023-03-01T13:55:45;2.40;99.90
44271;DHT22;29963;44.594;11.368;2023-03-01T13:58:21;2.40;99.90
44271;DHT22;29963;44.594;11.368;2023-03-01T14:00:46;2.40;99.90
44271;DHT22;29963;44.594;11.368;2023-03-01T14:03:19;2.40;99.90
44271;DHT22;29963;44.594;11.368;2023-03-01T14:08:28;2.40;99.90
44271;DHT22;29963;44.594;11.368;2023-03-01T14:16:27;2.50;99.90
44271;DHT22;29963;44.594;11.368;2023-03-01T14:19:16;2.50;99.90
44271;DHT22;29963;44.594;11.368;2023-03-01T14:21:43;2.50;99.90
44271;DHT22;29963;44.594;11.368;2023-03-01T14:24:20;2.50;99.90
44271;DHT22;29963;44.594;11.368;2023-03-01T14:26:47;2.50;99.90
44271;DHT22;29963;44.594;11.368;2023-03-01T14:29:36;2.60;99.90
44271;DHT22;29963;44.594;11.368;2023-03-01T14:32:31;2.60;99.90
44271;DHT22;29963;44.594;11.368;2023-03-01T14:34:59;2.60;99.90
44271;DHT22;29963;44.594;11.368;2023-03-01T14:37:33;2.60;99.90
44271;DHT22;29963;44.594;11.368;2023-03-01T14:40:01;2.60;99.90
44271;DHT22;29963;44.594;11.368;2023-03-01T14:42:31;2.60;99.90
44271;DHT22;29963;44.594;11.368;2023-03-01T14:45:00;2.50;99.90
44271;DHT22;29963;44.594;11.368;2023-03-01T14:47:30;2.50;99.90
44271;DHT22;29963;44.594;11.368;2023-03-01T14:50:05;2.50;99.90
44271;DHT22;29963;44.594;11.368;2023-03-01T14:52:41;2.50;99.90
44271;DHT22;29963;44.594;11.368;2023-03-01T14:55:24;2.50;99.90
44271;DHT22;29963;44.594;11.368;2023-03-01T14:57:51;2.50;99.90
44271;DHT22;29963;44.594;11.368;2023-03-01T15:00:19;2.50;99.90
44271;DHT22;29963;44.594;11.368;2023-03-01T15:02:47;2.50;99.90
44271;DHT22;29963;44.594;11.368;2023-03-01T15:05:14;2.50;99.90
44271;DHT22;29963;44.594;11.368;2023-03-01T15:07:42;2.60;99.90
44271;DHT22;29963;44.594;11.368;2023-03-01T15:10:20;2.50;99.90
44271;DHT22;29963;44.594;11.368;2023-03-01T15:12:46;2.60;99.90
44271;DHT22;29963;44.594;11.368;2023-03-01T15:15:35;2.60;99.90
44271;DHT22;29963;44.594;11.368;2023-03-01T15:18:26;2.60;99.90
44271;DHT22;29963;44.594;11.368;2023-03-01T15:20:53;2.60;99.90
44271;DHT22;29963;44.594;11.368;2023-03-01T15:23:23;2.60;99.90
44271;DHT22;29963;44.594;11.368;2023-03-01T15:25:50;2.60;99.90
44271;DHT22;29963;44.594;11.368;2023-03-01T15:28:31;2.60;99.90
44271;DHT22;29963;44.594;11.368;2023-03-01T15:31:18;2.60;99.90
44271;DHT22;29963;44.594;11.368;2023-03-01T15:33:44;2.60;99.90
44271;DHT22;29963;44.594;11.368;2023-03-01T15:36:32;2.60;99.90
44271;DHT22;29963;44.594;11.368;2023-03-01T15:38:59;2.50;99.90
44271;DHT22;29963;44.594;11.368;2023-03-01T15:41:29;2.50;99.90
44271;DHT22;29963;44.594;11.368;2023-03-01T15:44:17;2.50;99.90
44271;DHT22;29963;44.594;11.368;2023-03-01T15:46:47;2.60;99.90
44271;DHT22;29963;44.594;11.368;2023-03-01T15:49:38;2.60;99.90
44271;DHT22;29963;44.594;11.368;2023-03-01T15:52:10;2.60;99.90
44271;DHT22;29963;44.594;11.368;2023-03-01T15:54:39;2.60;99.90
44271;DHT22;29963;44.594;11.368;2023-03-01T15:57:09;2.70;99.90
44271;DHT22;29963;44.594;11.368;2023-03-01T15:59:37;2.70;99.90
44271;DHT22;29963;44.594;11.368;2023-03-01T16:02:09;2.70;99.90
44271;DHT22;29963;44.594;11.368;2023-03-01T16:04:34;2.70;99.90
44271;DHT22;29963;44.594;11.368;2023-03-01T16:07:00;2.70;99.90
44271;DHT22;29963;44.594;11.368;2023-03-01T16:09:26;2.70;99.90
44271;DHT22;29963;44.594;11.368;2023-03-01T16:11:53;2.70;99.90
44271;DHT22;29963;44.594;11.368;2023-03-01T16:14:19;2.70;99.90
44271;DHT22;29963;44.594;11.368;2023-03-01T16:16:45;2.70;99.90
44271;DHT22;29963;44.594;11.368;2023-03-01T16:19:11;2.70;99.90
44271;DHT22;29963;44.594;11.368;2023-03-01T16:21:37;2.80;99.90
44271;DHT22;29963;44.594;11.368;2023-03-01T16:24:03;2.60;99.90
44271;DHT22;29963;44.594;11.368;2023-03-01T16:26:29;2.60;99.90
44271;DHT22;29963;44.594;11.368;2023-03-01T16:28:56;2.60;99.90
44271;DHT22;29963;44.594;11.368;2023-03-01T16:31:22;2.60;99.90
44271;DHT22;29963;44.594;11.368;2023-03-01T16:33:48;2.60;99.90
44271;DHT22;29963;44.594;11.368;2023-03-01T16:36:18;2.60;99.90
44271;DHT22;29963;44.594;11.368;2023-03-01T16:38:47;2.70;99.90
44271;DHT22;29963;44.594;11.368;2023-03-01T16:41:15;2.70;99.90
44271;DHT22;29963;44.594;11.368;2023-03-01T16:43:42;2.70;99.90
44271;DHT22;29963;44.594;11.368;2023-03-01T16:46:15;2.70;99.90
44271;DHT22;29963;44.594;11.368;2023-03-01T16:48:41;2.70;99.90
44271;DHT22;29963;44.594;11.368;2023-03-01T16:51:07;2.70;99.90
44271;DHT22;29963;44.594;11.368;2023-03-01T16:53:34;2.70;99.90
44271;DHT22;29963;44.594;11.368;2023-03-01T16:56:05;2.70;99.90
44271;DHT22;29963;44.594;11.368;2023-03-01T16:58:31;2.70;99.90
44271;DHT22;29963;44.594;11.368;2023-03-01T17:03:31;2.70;99.90
44271;DHT22;29963;44.594;11.368;2023-03-01T17:05:57;2.70;99.90
44271;DHT22;29963;44.594;11.368;2023-03-01T17:08:25;2.70;99.90
44271;DHT22;29963;44.594;11.368;2023-03-01T17:10:51;2.70;99.90
44271;DHT22;29963;44.594;11.368;2023-03-01T17:13:16;2.70;99.90
44271;DHT22;29963;44.594;11.368;2023-03-01T17:15:42;2.70;99.90
44271;DHT22;29963;44.594;11.368;2023-03-01T17:18:08;2.80;99.90
44271;DHT22;29963;44.594;11.368;2023-03-01T17:20:35;2.80;99.90
44271;DHT22;29963;44.594;11.368;2023-03-01T17:23:01;2.80;99.90
44271;DHT22;29963;44.594;11.368;2023-03-01T17:25:27;2.80;99.90
44271;DHT22;29963;44.594;11.368;2023-03-01T17:27:52;2.80;99.90
44271;DHT22;29963;44.594;11.368;2023-03-01T17:30:18;2.80;99.90
44271;DHT22;29963;44.594;11.368;2023-03-01T17:32:44;2.90;99.90
44271;DHT22;29963;44.594;11.368;2023-03-01T17:35:10;2.90;99.90